Time;durP1;ratioP1;P1;durP2;ratioP2;P2;SDS_P1;SDS_P2;PMS_P1;PMS_P2;Temp;Humidity;BMP_temperature;BMP_pressure;BME280_temperature;BME280_humidity;BME280_pressure;Samples;Min_cycle;Max_cycle;Signal;HPM_P1;HPM_P2
2022/07/20 00:02:21;;;;;;;5.97;5.00;;;25.40;59.60;;;;;;5055280;28;20510;-53
2022/07/20 00:04:50;;;;;;;5.70;4.63;;;25.30;59.40;;;;;;5054794;28;20974;-52
2022/07/20 00:07:17;;;;;;;7.27;4.50;;;25.30;59.70;;;;;;5055736;28;20444;-52
2022/07/20 00:12:28;;;;;;;8.20;4.20;;;25.20;59.90;;;;;;5056183;28;20463;-52
2022/07/20 00:14:55;;;;;;;5.00;4.40;;;25.20;60.00;;;;;;5056309;28;20500;-56
2022/07/20 00:17:22;;;;;;;7.10;5.30;;;25.10;60.20;;;;;;5055794;28;20455;-48
2022/07/20 00:19:51;;;;;;;6.17;5.50;;;25.10;60.40;;;;;;5055539;28;20444;-51
2022/07/20 00:22:18;;;;;;;6.27;4.70;;;25.10;60.50;;;;;;5055056;28;20476;-56
2022/07/20 00:24:45;;;;;;;8.50;4.83;;;25.10;60.60;;;;;;5055139;28;20472;-52
2022/07/20 00:27:12;;;;;;;6.27;4.60;;;25.00;60.70;;;;;;5055098;28;20515;-53
2022/07/20 00:29:41;;;;;;;7.33;4.63;;;25.00;60.90;;;;;;5055481;28;20455;-54
2022/07/20 00:32:07;;;;;;;6.90;4.30;;;25.00;61.00;;;;;;5055738;28;20468;-50
2022/07/20 00:34:34;;;;;;;5.87;4.97;;;25.00;61.20;;;;;;5055359;28;20513;-51
2022/07/20 00:37:02;;;;;;;5.70;4.50;;;24.90;61.40;;;;;;5055182;28;20475;-50
2022/07/20 00:39:31;;;;;;;8.30;5.00;;;24.90;61.50;;;;;;5055204;28;20447;-51
2022/07/20 00:41:58;;;;;;;6.27;4.60;;;24.90;61.90;;;;;;5055243;28;20476;-49
2022/07/20 00:44:25;;;;;;;6.13;5.00;;;24.80;62.00;;;;;;5055725;28;20440;-50
2022/07/20 00:46:55;;;;;;;6.57;4.70;;;24.70;62.30;;;;;;5055150;28;20563;-54
2022/07/20 00:49:22;;;;;;;5.07;4.40;;;24.70;62.30;;;;;;5055067;28;20491;-54
2022/07/20 00:51:50;;;;;;;7.03;4.47;;;24.70;62.50;;;;;;5055036;28;20475;-49
2022/07/20 00:54:19;;;;;;;6.73;5.33;;;24.70;62.50;;;;;;5055604;28;20454;-51
2022/07/20 00:56:46;;;;;;;6.87;4.67;;;24.70;62.70;;;;;;5055140;28;20491;-60
2022/07/20 00:59:18;;;;;;;6.73;4.73;;;24.60;62.70;;;;;;5055753;28;20431;-52
2022/07/20 01:01:44;;;;;;;5.83;4.50;;;24.60;62.80;;;;;;5055222;28;20519;-51
2022/07/20 01:04:11;;;;;;;6.97;4.40;;;24.60;63.00;;;;;;5055582;28;20430;-59
2022/07/20 01:06:38;;;;;;;7.10;4.47;;;24.60;63.80;;;;;;5055269;28;20496;-57
2022/07/20 01:09:05;;;;;;;4.70;4.10;;;24.60;63.00;;;;;;5055270;28;20423;-55
2022/07/20 01:11:35;;;;;;;5.33;4.37;;;24.50;63.20;;;;;;5055365;28;20444;-52
2022/07/20 01:14:02;;;;;;;5.90;4.40;;;24.50;63.20;;;;;;5055732;28;20475;-57
2022/07/20 01:16:33;;;;;;;5.10;4.40;;;24.50;63.30;;;;;;5053953;28;20428;-54
2022/07/20 01:19:00;;;;;;;7.40;4.30;;;24.50;63.40;;;;;;5043624;28;20515;-46
2022/07/20 01:21:29;;;;;;;6.97;5.13;;;24.50;63.60;;;;;;5054152;28;20507;-48
2022/07/20 01:23:58;;;;;;;7.73;5.17;;;24.50;63.60;;;;;;5055317;28;20484;-52
2022/07/20 01:26:25;;;;;;;7.00;5.20;;;24.50;64.60;;;;;;5055268;28;20517;-53
2022/07/20 01:28:52;;;;;;;6.67;5.47;;;24.40;63.90;;;;;;5055082;28;20432;-52
2022/07/20 01:31:19;;;;;;;6.77;4.67;;;24.40;63.60;;;;;;5054746;28;20448;-48
2022/07/20 01:33:45;;;;;;;6.93;5.27;;;24.40;63.80;;;;;;5054625;28;20520;-48
2022/07/20 01:36:12;;;;;;;9.10;5.10;;;24.40;64.10;;;;;;5054069;28;20434;-54
2022/07/20 01:38:41;;;;;;;6.80;5.60;;;24.40;64.10;;;;;;5055074;28;20471;-48
2022/07/20 01:41:08;;;;;;;6.20;5.10;;;24.30;64.10;;;;;;5053454;28;20436;-53
2022/07/20 01:43:35;;;;;;;7.27;5.00;;;24.40;64.20;;;;;;5054887;28;20471;-52
2022/07/20 01:46:01;;;;;;;8.03;5.70;;;24.30;64.20;;;;;;5043269;28;20547;-52
2022/07/20 01:48:31;;;;;;;5.40;4.87;;;24.30;64.50;;;;;;5045040;28;20551;-54
2022/07/20 01:50:58;;;;;;;5.67;5.07;;;24.30;64.60;;;;;;5054861;28;20443;-52
2022/07/20 01:53:25;;;;;;;8.63;5.10;;;24.20;64.70;;;;;;5057552;28;20468;-53
2022/07/20 01:55:53;;;;;;;6.40;5.20;;;24.20;65.10;;;;;;5049830;28;20486;-54
2022/07/20 01:58:21;;;;;;;5.90;4.93;;;24.20;65.20;;;;;;5054666;28;20468;-49
2022/07/20 02:00:48;;;;;;;5.90;4.70;;;24.10;65.30;;;;;;5058869;28;20511;-49
2022/07/20 02:03:15;;;;;;;7.60;5.97;;;24.10;65.50;;;;;;5058502;28;20463;-48
2022/07/20 02:05:42;;;;;;;7.17;4.97;;;24.00;65.50;;;;;;5058488;28;20511;-53
2022/07/20 02:08:09;;;;;;;4.97;4.47;;;24.00;65.90;;;;;;5058408;28;20484;-53
2022/07/20 02:10:36;;;;;;;5.97;5.37;;;24.00;66.00;;;;;;5058310;28;20431;-50
2022/07/20 02:13:04;;;;;;;7.53;5.40;;;24.00;66.00;;;;;;5057948;28;20467;-51
2022/07/20 02:18:16;;;;;;;9.13;5.53;;;23.90;66.40;;;;;;5056894;28;20474;-52
2022/07/20 02:20:42;;;;;;;7.97;6.37;;;23.90;67.10;;;;;;5058158;28;20453;-53
2022/07/20 02:23:11;;;;;;;8.77;6.33;;;23.90;67.30;;;;;;5058055;28;20452;-46
2022/07/20 02:25:38;;;;;;;6.77;5.10;;;23.80;67.40;;;;;;5058349;28;20499;-49
2022/07/20 02:28:07;;;;;;;5.83;5.10;;;23.80;67.90;;;;;;5058061;28;20447;-46
2022/07/20 02:30:35;;;;;;;14.33;7.50;;;23.80;68.00;;;;;;5058401;28;20436;-53
2022/07/20 02:33:02;;;;;;;7.47;4.77;;;23.70;68.40;;;;;;5056923;28;20484;-54
2022/07/20 02:35:29;;;;;;;6.97;4.57;;;23.70;68.40;;;;;;5055007;28;20424;-54
2022/07/20 02:38:01;;;;;;;8.80;5.50;;;23.70;68.60;;;;;;5055152;28;20444;-56
2022/07/20 02:40:27;;;;;;;6.70;5.87;;;23.70;69.00;;;;;;5057944;28;20492;-47
2022/07/20 02:42:55;;;;;;;6.70;5.23;;;23.70;69.20;;;;;;5056878;28;20497;-50
2022/07/20 02:45:23;;;;;;;6.27;5.00;;;23.70;69.40;;;;;;5055320;28;20491;-52
2022/07/20 02:47:50;;;;;;;7.77;5.13;;;23.70;69.50;;;;;;5054566;28;20492;-51
2022/07/20 02:50:17;;;;;;;10.10;6.00;;;23.70;69.90;;;;;;5057552;28;20461;-48
2022/07/20 02:52:44;;;;;;;5.83;5.20;;;23.70;70.10;;;;;;5057878;28;20472;-52
2022/07/20 02:55:12;;;;;;;7.30;5.53;;;23.60;70.40;;;;;;5055739;28;20559;-50
2022/07/20 02:57:39;;;;;;;7.07;5.10;;;23.60;71.20;;;;;;5057413;28;20448;-53
2022/07/20 03:00:11;;;;;;;7.87;5.17;;;23.50;71.70;;;;;;5057060;28;20484;-51
2022/07/20 03:02:41;;;;;;;7.17;5.60;;;23.50;72.00;;;;;;5056740;28;20444;-51
2022/07/20 03:05:08;;;;;;;5.13;4.63;;;23.50;72.20;;;;;;5056454;28;20452;-54
2022/07/20 03:07:35;;;;;;;7.30;5.40;;;23.50;73.00;;;;;;5056972;28;20536;-51
2022/07/20 03:10:02;;;;;;;8.83;6.00;;;23.50;73.60;;;;;;5057223;28;20487;-48
2022/07/20 03:12:29;;;;;;;6.40;5.33;;;23.40;74.20;;;;;;5056037;28;20437;-49
2022/07/20 03:14:56;;;;;;;12.17;6.00;;;23.40;75.00;;;;;;5057518;28;20448;-49
2022/07/20 03:17:23;;;;;;;12.57;5.63;;;23.40;75.20;;;;;;5055660;28;20460;-48
2022/07/20 03:19:57;;;;;;;8.23;5.83;;;23.40;75.80;;;;;;5057141;28;20488;-48
2022/07/20 03:22:24;;;;;;;11.50;5.90;;;23.40;76.50;;;;;;5055295;28;20435;-54
2022/07/20 03:24:51;;;;;;;6.80;5.67;;;23.30;77.20;;;;;;5056151;28;20464;-47
2022/07/20 03:27:17;;;;;;;6.80;5.90;;;23.30;77.80;;;;;;5054758;28;20530;-51
2022/07/20 03:29:44;;;;;;;10.80;5.63;;;23.30;78.80;;;;;;5055678;28;20500;-53
2022/07/20 03:32:17;;;;;;;6.27;5.27;;;23.20;79.60;;;;;;5054172;28;20448;-49
2022/07/20 03:34:44;;;;;;;7.20;5.97;;;23.20;80.40;;;;;;5046336;28;20500;-48
2022/07/20 03:37:19;;;;;;;6.37;5.77;;;23.20;81.10;;;;;;5057138;28;20448;-49
2022/07/20 03:39:45;;;;;;;6.50;5.23;;;23.20;82.50;;;;;;5056526;28;20499;-49
2022/07/20 03:42:12;;;;;;;6.90;5.63;;;23.10;83.10;;;;;;5056707;28;20460;-52
2022/07/20 03:44:42;;;;;;;6.83;5.53;;;23.10;85.10;;;;;;5056622;28;20483;-55
2022/07/20 03:47:09;;;;;;;7.70;6.10;;;23.10;86.10;;;;;;5056340;28;20480;-51
2022/07/20 03:49:35;;;;;;;13.37;6.00;;;23.10;87.10;;;;;;5054593;28;20826;-52
2022/07/20 03:52:03;;;;;;;9.50;5.83;;;23.10;87.60;;;;;;5053473;28;20435;-52
2022/07/20 03:54:32;;;;;;;9.20;5.67;;;23.10;88.00;;;;;;5055045;28;20451;-54
2022/07/20 03:57:01;;;;;;;8.33;6.10;;;23.10;90.20;;;;;;5054762;28;20492;-51
2022/07/20 03:59:30;;;;;;;8.00;6.13;;;23.20;89.80;;;;;;5055656;28;20436;-46
2022/07/20 04:01:57;;;;;;;6.90;6.17;;;23.10;90.50;;;;;;5056576;28;20498;-52
2022/07/20 04:04:27;;;;;;;10.80;6.40;;;23.10;91.20;;;;;;5055843;28;20448;-51
2022/07/20 04:06:54;;;;;;;6.13;5.13;;;23.10;91.40;;;;;;5055462;28;20498;-51
2022/07/20 04:09:43;;;;;;;7.33;6.33;;;23.10;91.70;;;;;;5055014;28;20525;-53
2022/07/20 04:12:15;;;;;;;7.17;5.50;;;23.10;92.00;;;;;;5055843;28;20492;-50
2022/07/20 04:14:43;;;;;;;8.13;5.70;;;23.20;92.00;;;;;;5054337;28;20480;-51
2022/07/20 04:17:12;;;;;;;10.03;6.73;;;23.20;92.80;;;;;;5056104;28;20507;-50
2022/07/20 04:19:42;;;;;;;10.77;5.93;;;23.20;92.80;;;;;;5055713;28;20483;-55
2022/07/20 04:22:09;;;;;;;7.00;5.87;;;23.20;93.50;;;;;;5053846;28;20440;-51
2022/07/20 04:24:36;;;;;;;9.67;6.53;;;23.20;93.30;;;;;;5055854;28;20455;-54
2022/07/20 04:27:04;;;;;;;6.63;5.93;;;23.30;93.40;;;;;;5054337;28;20511;-50
2022/07/20 04:29:32;;;;;;;9.90;6.20;;;23.30;93.50;;;;;;5056125;28;20466;-52
2022/07/20 04:32:01;;;;;;;12.00;6.00;;;23.30;93.60;;;;;;5054943;28;20507;-51
2022/07/20 04:34:28;;;;;;;8.57;7.37;;;23.30;93.70;;;;;;5055583;28;20468;-47
2022/07/20 04:36:55;;;;;;;6.00;5.40;;;23.30;93.90;;;;;;5056214;28;20432;-47
2022/07/20 04:39:24;;;;;;;11.53;7.17;;;23.30;94.20;;;;;;5050126;28;20471;-54
2022/07/20 04:41:51;;;;;;;8.00;6.90;;;23.40;94.20;;;;;;5047068;28;20512;-48
2022/07/20 04:44:18;;;;;;;8.17;6.90;;;23.40;94.40;;;;;;5055501;28;20491;-49
2022/07/20 04:46:46;;;;;;;10.60;7.43;;;23.40;94.90;;;;;;5055628;28;20486;-44
2022/07/20 04:49:13;;;;;;;8.17;6.87;;;23.40;94.30;;;;;;5054960;28;20428;-49
2022/07/20 04:51:40;;;;;;;7.27;6.30;;;23.40;94.90;;;;;;5054370;28;20479;-51
2022/07/20 04:54:07;;;;;;;9.83;6.27;;;23.40;95.30;;;;;;5055600;28;20444;-50
2022/07/20 04:56:34;;;;;;;7.60;6.53;;;23.40;95.60;;;;;;5055095;28;20467;-51
2022/07/20 04:59:01;;;;;;;12.23;7.53;;;23.50;95.90;;;;;;5055171;28;20463;-50
2022/07/20 05:01:28;;;;;;;8.03;6.77;;;23.50;95.90;;;;;;5056093;28;20476;-47
2022/07/20 05:03:56;;;;;;;10.67;6.87;;;23.50;95.30;;;;;;5055392;28;20448;-52
2022/07/20 05:06:23;;;;;;;10.37;6.83;;;23.60;94.60;;;;;;5055181;28;20454;-53
2022/07/20 05:08:50;;;;;;;13.00;5.90;;;23.70;94.10;;;;;;5055890;28;20467;-61
2022/07/20 05:11:17;;;;;;;9.27;7.33;;;23.70;93.50;;;;;;5050640;28;20500;-56
2022/07/20 05:13:44;;;;;;;9.17;7.10;;;23.80;93.30;;;;;;5054877;28;20452;-56
2022/07/20 05:16:13;;;;;;;9.20;6.73;;;23.80;93.40;;;;;;5042216;28;20472;-52
2022/07/20 05:18:40;;;;;;;7.93;7.10;;;23.90;92.30;;;;;;5055325;28;20431;-53
2022/07/20 05:21:12;;;;;;;8.30;6.50;;;23.90;91.90;;;;;;5055144;28;20495;-48
2022/07/20 05:23:39;;;;;;;9.23;6.40;;;24.00;91.90;;;;;;5046703;28;20432;-51
2022/07/20 05:26:06;;;;;;;11.53;5.90;;;24.00;91.10;;;;;;5054917;28;20454;-52
2022/07/20 05:28:33;;;;;;;11.77;6.80;;;24.10;92.00;;;;;;5060218;28;20464;-54
2022/07/20 05:31:00;;;;;;;9.30;6.70;;;24.10;92.10;;;;;;5060098;28;20444;-50
2022/07/20 05:33:26;;;;;;;9.10;7.13;;;24.20;90.60;;;;;;5058873;28;20460;-60
2022/07/20 05:35:53;;;;;;;11.77;7.17;;;24.30;90.30;;;;;;5046038;28;20447;-49
2022/07/20 05:38:22;;;;;;;13.77;7.30;;;24.30;89.30;;;;;;5058778;28;20448;-53
2022/07/20 05:40:49;;;;;;;13.53;7.77;;;24.40;87.90;;;;;;5059351;28;20454;-62
2022/07/20 05:43:15;;;;;;;16.57;6.77;;;24.50;87.10;;;;;;5048624;28;20466;-46
2022/07/20 05:45:42;;;;;;;8.20;7.23;;;24.50;86.50;;;;;;5059223;28;20447;-45
2022/07/20 05:48:11;;;;;;;7.90;6.33;;;24.60;86.30;;;;;;5057862;28;20540;-53
2022/07/20 05:50:40;;;;;;;10.70;6.77;;;24.70;87.00;;;;;;5060099;28;20452;-50
2022/07/20 05:53:07;;;;;;;7.17;6.47;;;24.70;86.60;;;;;;5059795;28;20452;-55
2022/07/20 05:55:36;;;;;;;11.33;7.93;;;24.80;86.10;;;;;;5059926;28;20444;-49
2022/07/20 05:58:06;;;;;;;16.63;7.93;;;24.90;86.00;;;;;;5059676;28;20456;-52
2022/07/20 06:00:34;;;;;;;8.37;7.50;;;24.90;85.80;;;;;;5047988;28;20447;-50
2022/07/20 06:03:02;;;;;;;15.13;8.40;;;25.00;85.10;;;;;;5059537;28;20448;-54
2022/07/20 06:05:29;;;;;;;9.87;6.53;;;25.00;84.90;;;;;;5059172;28;20436;-54
2022/07/20 06:07:56;;;;;;;11.27;7.27;;;25.10;84.90;;;;;;5059631;28;20491;-52
2022/07/20 06:10:23;;;;;;;10.73;7.60;;;25.20;83.90;;;;;;5057293;28;20448;-48
2022/07/20 06:12:51;;;;;;;12.67;7.67;;;25.30;84.20;;;;;;5058332;28;20460;-50
2022/07/20 06:15:19;;;;;;;10.40;7.57;;;25.30;84.20;;;;;;5059296;28;20468;-49
2022/07/20 06:17:46;;;;;;;9.70;6.90;;;25.40;83.50;;;;;;5057116;28;20448;-55
2022/07/20 06:20:16;;;;;;;11.00;8.13;;;25.50;84.10;;;;;;5058842;28;20452;-54
2022/07/20 06:22:44;;;;;;;11.20;6.73;;;25.60;82.90;;;;;;5057370;28;20488;-52
2022/07/20 06:25:13;;;;;;;10.70;6.70;;;25.70;83.40;;;;;;5057455;28;20463;-50
2022/07/20 06:27:40;;;;;;;10.37;7.00;;;25.80;82.10;;;;;;5057917;28;20528;-51
2022/07/20 06:30:10;;;;;;;7.50;6.60;;;25.90;81.90;;;;;;5057565;28;20451;-53
2022/07/20 06:32:38;;;;;;;12.50;6.77;;;26.10;80.70;;;;;;5058329;28;20468;-53
2022/07/20 06:35:06;;;;;;;11.87;7.90;;;26.20;80.20;;;;;;5057169;28;20433;-48
2022/07/20 06:37:33;;;;;;;8.07;6.70;;;26.30;79.70;;;;;;5056507;28;20480;-53
2022/07/20 06:40:00;;;;;;;13.07;8.40;;;26.40;78.40;;;;;;5057722;28;20476;-48
2022/07/20 06:42:27;;;;;;;25.60;8.70;;;26.50;79.20;;;;;;5057122;28;20456;-53
2022/07/20 06:44:54;;;;;;;10.73;7.00;;;26.60;79.40;;;;;;5057850;28;20477;-52
2022/07/20 06:47:23;;;;;;;10.70;7.10;;;26.70;78.00;;;;;;5057135;28;20464;-50
2022/07/20 06:49:50;;;;;;;10.43;8.00;;;26.80;77.90;;;;;;5057728;28;20436;-51
2022/07/20 06:52:17;;;;;;;10.57;8.23;;;26.90;77.60;;;;;;5056913;28;20451;-47
2022/07/20 06:54:44;;;;;;;9.37;6.90;;;27.00;77.40;;;;;;5057498;28;20447;-45
2022/07/20 06:57:10;;;;;;;9.80;8.40;;;27.10;77.00;;;;;;5057313;28;20447;-52
2022/07/20 06:59:38;;;;;;;13.60;7.60;;;27.20;75.00;;;;;;5058116;28;20432;-50
2022/07/20 07:02:05;;;;;;;9.87;7.43;;;27.30;75.50;;;;;;5056723;28;20814;-54
2022/07/20 07:04:33;;;;;;;9.77;6.67;;;27.40;75.60;;;;;;5057658;28;20440;-52
2022/07/20 07:07:01;;;;;;;9.60;7.00;;;27.50;74.30;;;;;;5057586;28;20483;-49
2022/07/20 07:09:28;;;;;;;9.30;7.10;;;27.70;73.30;;;;;;5058111;28;20424;-54
2022/07/20 07:11:55;;;;;;;10.67;9.30;;;27.80;73.40;;;;;;5058424;28;20504;-57
2022/07/20 07:14:22;;;;;;;13.13;8.20;;;27.90;73.10;;;;;;5057847;28;20468;-59
2022/07/20 07:16:49;;;;;;;8.90;6.77;;;28.00;73.50;;;;;;5056330;28;20447;-49
2022/07/20 07:19:16;;;;;;;11.40;7.40;;;28.20;72.50;;;;;;5057179;28;20480;-53
2022/07/20 07:21:44;;;;;;;7.90;6.80;;;28.40;71.40;;;;;;5057164;28;20475;-51
2022/07/20 07:24:11;;;;;;;6.67;6.07;;;28.90;68.70;;;;;;5056762;28;20479;-52
2022/07/20 07:26:37;;;;;;;13.40;6.70;;;29.80;68.60;;;;;;5056724;28;20451;-51
2022/07/20 07:29:04;;;;;;;8.57;7.00;;;31.20;63.30;;;;;;5056619;28;20487;-55
2022/07/20 07:31:33;;;;;;;13.27;6.87;;;32.70;59.80;;;;;;5056734;28;20440;-57
2022/07/20 07:33:59;;;;;;;11.63;7.30;;;34.30;56.30;;;;;;5055988;28;20483;-50
2022/07/20 07:36:26;;;;;;;9.90;7.90;;;35.80;53.00;;;;;;5056197;28;20447;-52
2022/07/20 07:38:54;;;;;;;8.37;7.50;;;37.10;50.40;;;;;;5055529;28;20492;-58
2022/07/20 07:41:21;;;;;;;8.60;7.00;;;38.30;46.90;;;;;;5055382;28;20508;-53
2022/07/20 07:43:48;;;;;;;8.43;7.03;;;39.10;44.30;;;;;;5055741;28;20464;-52
2022/07/20 07:46:17;;;;;;;9.53;7.60;;;39.90;43.30;;;;;;5055651;28;20448;-50
2022/07/20 07:48:43;;;;;;;8.10;6.97;;;40.70;42.10;;;;;;5054483;28;20488;-55
2022/07/20 07:51:10;;;;;;;8.27;7.40;;;41.10;41.20;;;;;;5054738;28;20496;-50
2022/07/20 07:53:39;;;;;;;8.77;6.90;;;41.70;40.30;;;;;;5055052;28;20471;-52
2022/07/20 07:56:08;;;;;;;10.20;7.70;;;42.00;38.90;;;;;;5055971;28;20440;-51
2022/07/20 07:58:34;;;;;;;7.07;6.37;;;41.90;38.70;;;;;;5055453;28;20499;-52
2022/07/20 08:01:02;;;;;;;13.97;6.83;;;41.90;38.70;;;;;;5055579;28;20531;-53
2022/07/20 08:03:28;;;;;;;7.70;6.90;;;42.20;37.60;;;;;;5055903;28;20520;-51
2022/07/20 08:05:55;;;;;;;11.10;7.10;;;42.40;37.90;;;;;;5055968;28;20511;-47
2022/07/20 08:08:22;;;;;;;10.63;6.60;;;42.50;37.70;;;;;;5055329;28;20523;-52
2022/07/20 08:10:49;;;;;;;8.90;6.20;;;42.80;36.70;;;;;;5044234;28;20444;-53
2022/07/20 08:13:17;;;;;;;9.27;6.30;;;43.20;36.80;;;;;;5055557;28;20491;-50
2022/07/20 08:15:44;;;;;;;9.60;8.60;;;43.60;35.00;;;;;;5055166;28;21052;-51
2022/07/20 08:18:13;;;;;;;10.73;6.53;;;43.50;35.50;;;;;;5055093;28;20424;-50
2022/07/20 08:20:40;;;;;;;7.13;6.37;;;43.50;35.20;;;;;;5055888;28;20427;-47
2022/07/20 08:23:07;;;;;;;8.50;6.77;;;43.30;35.90;;;;;;5055973;28;20516;-52
2022/07/20 08:25:34;;;;;;;16.10;6.83;;;43.20;35.50;;;;;;5056185;28;20429;-52
2022/07/20 08:28:12;;;;;;;8.47;6.63;;;43.10;36.10;;;;;;5055615;28;20523;-51
2022/07/20 08:30:43;;;;;;;10.00;6.93;;;43.40;35.70;;;;;;5055112;28;20468;-57
2022/07/20 08:33:10;;;;;;;8.10;6.20;;;43.60;34.80;;;;;;5054949;28;20439;-55
2022/07/20 08:35:38;;;;;;;10.53;6.50;;;43.50;35.20;;;;;;5055109;28;20436;-55
2022/07/20 08:38:05;;;;;;;10.33;6.77;;;43.50;34.00;;;;;;5055339;28;20768;-51
2022/07/20 08:40:32;;;;;;;10.50;7.07;;;43.60;34.00;;;;;;5055636;28;20491;-54
2022/07/20 08:42:59;;;;;;;8.90;7.87;;;43.70;35.50;;;;;;5055102;28;20448;-55
2022/07/20 08:45:28;;;;;;;6.53;5.77;;;43.90;34.80;;;;;;5054872;28;20464;-50
2022/07/20 08:47:58;;;;;;;13.23;6.90;;;44.10;33.20;;;;;;5055292;28;20791;-54
2022/07/20 08:50:27;;;;;;;7.93;5.47;;;44.20;34.00;;;;;;5054805;28;20451;-52
2022/07/20 08:52:56;;;;;;;6.40;5.80;;;44.20;33.40;;;;;;5054334;28;20451;-53
2022/07/20 08:55:24;;;;;;;7.77;5.90;;;44.30;33.60;;;;;;5054867;28;20476;-55
2022/07/20 08:57:51;;;;;;;20.00;13.43;;;44.20;34.20;;;;;;5055048;28;20463;-57
2022/07/20 09:00:18;;;;;;;8.77;6.93;;;44.10;33.90;;;;;;5056057;28;20539;-58
2022/07/20 09:02:53;;;;;;;7.70;6.37;;;44.20;35.40;;;;;;5058910;28;20448;-54
2022/07/20 09:05:23;;;;;;;9.67;6.97;;;44.50;33.70;;;;;;5057944;28;20489;-52
2022/07/20 09:07:53;;;;;;;6.57;5.97;;;44.50;33.30;;;;;;5058724;28;20487;-55
2022/07/20 09:10:21;;;;;;;6.40;5.80;;;44.50;33.40;;;;;;5058633;28;20467;-50
2022/07/20 09:12:53;;;;;;;8.50;6.67;;;44.40;33.00;;;;;;5057994;28;20500;-51
2022/07/20 09:15:32;;;;;;;7.77;6.60;;;44.40;32.60;;;;;;5058695;28;20559;-50
2022/07/20 09:18:05;;;;;;;8.23;6.30;;;44.50;33.00;;;;;;5058733;28;20454;-49
2022/07/20 09:20:34;;;;;;;6.83;6.23;;;44.20;33.80;;;;;;5057798;28;20484;-55
2022/07/20 09:23:01;;;;;;;5.00;4.50;;;44.40;34.00;;;;;;5057823;28;20459;-51
2022/07/20 09:25:28;;;;;;;8.70;5.60;;;44.50;31.50;;;;;;5057570;28;20519;-55
2022/07/20 09:27:55;;;;;;;11.33;5.20;;;44.70;31.40;;;;;;5057550;28;20475;-54
2022/07/20 09:30:22;;;;;;;6.40;5.33;;;45.00;31.00;;;;;;5058079;28;20531;-52
2022/07/20 09:32:52;;;;;;;5.77;5.17;;;45.10;31.20;;;;;;5058122;28;20488;-55
2022/07/20 09:35:21;;;;;;;6.77;5.27;;;44.90;30.80;;;;;;5057688;28;20464;-54
2022/07/20 09:37:50;;;;;;;6.23;5.73;;;44.90;30.60;;;;;;5057625;28;20440;-54
2022/07/20 09:40:17;;;;;;;7.13;6.47;;;44.80;32.30;;;;;;5058031;28;20423;-52
2022/07/20 09:42:46;;;;;;;9.37;6.33;;;44.60;31.80;;;;;;5058510;28;20420;-54
2022/07/20 09:45:25;;;;;;;8.53;5.73;;;44.50;31.30;;;;;;5058698;28;20468;-50
2022/07/20 09:48:10;;;;;;;6.20;5.00;;;44.80;30.20;;;;;;5057845;28;20485;-55
2022/07/20 09:50:39;;;;;;;5.00;4.60;;;45.10;30.10;;;;;;5057811;28;20495;-51
2022/07/20 09:53:08;;;;;;;9.40;5.20;;;45.20;29.90;;;;;;5057065;28;20432;-48
2022/07/20 09:55:39;;;;;;;5.23;4.73;;;45.20;31.40;;;;;;5057821;28;20516;-52
2022/07/20 09:58:06;;;;;;;5.37;4.87;;;45.20;30.10;;;;;;5057282;28;20511;-54
2022/07/20 10:00:34;;;;;;;7.00;6.40;;;45.20;30.00;;;;;;5057318;28;20458;-53
2022/07/20 10:03:03;;;;;;;7.67;5.80;;;45.00;30.40;;;;;;5058439;28;20485;-52
2022/07/20 10:05:34;;;;;;;5.37;4.60;;;44.70;30.30;;;;;;5058365;28;20444;-53
2022/07/20 10:08:03;;;;;;;5.10;4.70;;;44.70;30.00;;;;;;5058115;28;20434;-52
2022/07/20 10:10:32;;;;;;;5.43;4.80;;;44.50;30.90;;;;;;5056500;28;20506;-59
2022/07/20 10:13:01;;;;;;;6.90;5.43;;;44.80;30.80;;;;;;5056566;28;20438;-51
2022/07/20 10:15:41;;;;;;;5.20;4.70;;;44.80;31.10;;;;;;5057984;28;20440;-48
2022/07/20 10:18:10;;;;;;;7.13;6.43;;;44.50;30.10;;;;;;5057635;28;20420;-55
2022/07/20 10:20:38;;;;;;;6.07;5.00;;;44.20;31.20;;;;;;5057551;28;20444;-55
2022/07/20 10:23:38;;;;;;;5.63;5.13;;;44.20;29.80;;;;;;5057971;28;20471;-54
2022/07/20 10:26:26;;;;;;;6.17;5.00;;;44.20;30.10;;;;;;5057110;28;20481;-52
2022/07/20 10:28:59;;;;;;;7.43;6.00;;;44.10;31.60;;;;;;5056906;28;20505;-52
2022/07/20 10:31:26;;;;;;;7.10;4.83;;;43.90;30.50;;;;;;5057284;28;20472;-54
2022/07/20 10:33:53;;;;;;;7.53;5.03;;;43.80;30.80;;;;;;5057792;28;20865;-55
2022/07/20 10:39:43;;;;;;;6.40;5.53;;;43.40;31.50;;;;;;5056925;28;20798;-53
2022/07/20 10:42:26;;;;;;;7.87;5.67;;;43.40;31.50;;;;;;5056370;28;20451;-54
2022/07/20 10:44:53;;;;;;;8.23;4.37;;;43.10;31.60;;;;;;5050194;28;20472;-55
2022/07/20 10:47:45;;;;;;;7.00;4.80;;;42.80;31.50;;;;;;5053469;28;20455;-50
2022/07/20 10:50:20;;;;;;;4.63;4.00;;;42.60;32.30;;;;;;5056610;28;20560;-53
2022/07/20 10:52:48;;;;;;;5.50;4.80;;;42.30;31.00;;;;;;5057381;28;20519;-53
2022/07/20 10:55:50;;;;;;;5.03;4.10;;;42.30;32.30;;;;;;5057034;28;20508;-53
2022/07/20 10:58:21;;;;;;;5.73;4.70;;;42.10;30.80;;;;;;5056414;28;20630;-50
2022/07/20 11:00:50;;;;;;;4.80;4.27;;;42.00;30.70;;;;;;5056456;28;20468;-49
2022/07/20 11:03:20;;;;;;;7.03;5.20;;;41.80;30.70;;;;;;5056874;28;20475;-48
2022/07/20 11:05:48;;;;;;;4.67;4.27;;;41.70;31.00;;;;;;5057204;28;20455;-54
2022/07/20 11:08:15;;;;;;;7.93;4.70;;;41.50;31.20;;;;;;5056976;28;20563;-52
2022/07/20 11:10:43;;;;;;;4.93;4.40;;;41.40;31.70;;;;;;5056207;28;20460;-49
2022/07/20 11:13:11;;;;;;;4.53;4.13;;;41.30;30.80;;;;;;5056566;28;20456;-55
2022/07/20 11:15:46;;;;;;;5.50;4.10;;;41.20;32.20;;;;;;5055919;28;20468;-52
2022/07/20 11:18:14;;;;;;;5.50;4.80;;;41.00;30.80;;;;;;5056045;28;20463;-52
2022/07/20 11:20:49;;;;;;;8.23;3.83;;;41.00;31.70;;;;;;5047800;28;20479;-54
2022/07/20 11:23:17;;;;;;;4.40;3.77;;;41.00;32.50;;;;;;5050458;28;20559;-49
2022/07/20 11:25:49;;;;;;;7.20;3.70;;;41.00;30.70;;;;;;5056147;28;20466;-55
2022/07/20 11:28:19;;;;;;;5.83;4.43;;;40.90;30.50;;;;;;5055870;28;20466;-54
2022/07/20 11:30:48;;;;;;;6.43;4.60;;;40.80;31.10;;;;;;5056493;28;20440;-52
2022/07/20 11:33:22;;;;;;;8.60;4.43;;;40.70;31.30;;;;;;5056698;28;20492;-48
2022/07/20 11:35:49;;;;;;;4.83;4.10;;;40.70;32.30;;;;;;5056721;28;20459;-55
2022/07/20 11:38:16;;;;;;;6.30;4.40;;;40.60;31.60;;;;;;5050492;28;20468;-55
2022/07/20 11:40:56;;;;;;;5.47;4.93;;;40.60;31.80;;;;;;5052320;28;20502;-53
2022/07/20 11:43:23;;;;;;;5.90;4.80;;;40.40;30.90;;;;;;5056407;28;20467;-50
2022/07/20 11:45:51;;;;;;;5.23;4.03;;;40.40;30.80;;;;;;5044847;28;20452;-51
2022/07/20 11:48:20;;;;;;;5.07;4.40;;;40.20;31.30;;;;;;5055548;28;20476;-55
2022/07/20 11:50:47;;;;;;;10.53;4.83;;;40.20;32.00;;;;;;5055705;28;20440;-52
2022/07/20 11:53:29;;;;;;;6.33;4.50;;;40.20;31.60;;;;;;5056001;28;20452;-53
2022/07/20 11:55:57;;;;;;;5.97;4.03;;;40.20;31.60;;;;;;5056080;28;20424;-55
2022/07/20 11:58:30;;;;;;;5.00;4.60;;;40.10;31.80;;;;;;5056085;28;20532;-51
2022/07/20 12:00:59;;;;;;;5.60;4.63;;;40.10;31.40;;;;;;5056012;28;20476;-50
2022/07/20 12:03:30;;;;;;;8.00;4.50;;;40.00;31.50;;;;;;5055827;28;20464;-52
2022/07/20 12:06:00;;;;;;;6.40;4.83;;;40.00;31.70;;;;;;5052302;28;20547;-53
2022/07/20 12:08:29;;;;;;;8.23;4.60;;;40.00;32.90;;;;;;5049857;28;20814;-52
2022/07/20 12:10:57;;;;;;;4.93;4.50;;;39.80;32.50;;;;;;5056292;28;20472;-52
2022/07/20 12:13:26;;;;;;;7.03;4.90;;;39.70;32.30;;;;;;5055498;28;20479;-48
2022/07/20 12:16:00;;;;;;;6.80;4.90;;;39.50;32.60;;;;;;5055739;28;20429;-54
2022/07/20 12:18:46;;;;;;;5.43;4.20;;;39.50;32.70;;;;;;5048212;28;20490;-50
2022/07/20 12:21:15;;;;;;;6.80;5.20;;;39.50;34.50;;;;;;5055988;28;20464;-50
2022/07/20 12:23:44;;;;;;;5.53;4.80;;;39.30;32.90;;;;;;5054964;28;20459;-51
2022/07/20 12:26:26;;;;;;;4.57;4.17;;;39.10;33.10;;;;;;5054267;28;20436;-51
2022/07/20 12:28:55;;;;;;;6.53;4.47;;;38.90;33.10;;;;;;5055176;28;20543;-52
2022/07/20 12:31:25;;;;;;;13.23;5.63;;;38.90;33.10;;;;;;5055245;28;20464;-49
2022/07/20 12:34:03;;;;;;;5.00;4.50;;;38.90;33.20;;;;;;5054676;28;20448;-50
2022/07/20 12:36:38;;;;;;;8.20;4.53;;;39.00;33.20;;;;;;5054512;28;20428;-53
2022/07/20 12:39:08;;;;;;;7.33;4.27;;;39.00;33.20;;;;;;5048156;28;20515;-54
2022/07/20 12:41:35;;;;;;;11.93;5.80;;;39.10;33.10;;;;;;5055011;28;20473;-51
2022/07/20 12:44:23;;;;;;;9.73;5.77;;;39.10;33.20;;;;;;5055891;28;20448;-53
2022/07/20 12:46:52;;;;;;;7.17;4.50;;;38.90;32.80;;;;;;5054147;28;20448;-54
2022/07/20 12:49:20;;;;;;;7.27;5.90;;;38.70;32.60;;;;;;5044658;28;20584;-54
2022/07/20 12:51:48;;;;;;;5.00;4.23;;;38.50;33.40;;;;;;5042831;28;20443;-53
2022/07/20 12:54:14;;;;;;;12.40;5.33;;;38.40;32.40;;;;;;5054800;28;20467;-48
2022/07/20 12:56:41;;;;;;;5.00;4.20;;;38.30;33.10;;;;;;5052166;28;20444;-52
2022/07/20 12:59:08;;;;;;;6.40;4.30;;;38.20;32.00;;;;;;5052383;28;20468;-48
2022/07/20 13:01:35;;;;;;;5.47;3.90;;;38.00;31.40;;;;;;5054834;28;20432;-49
2022/07/20 13:04:03;;;;;;;6.83;4.10;;;37.90;31.40;;;;;;5053679;28;20480;-50